sensor_id;sensor_type;location;lat;lon;timestamp;temperature;humidity
48579;DHT22;34357;51.948;6.132;2023-07-29T00:01:43;18.40;89.30
48579;DHT22;34357;51.948;6.132;2023-07-29T00:04:09;18.30;89.50
48579;DHT22;34357;51.948;6.132;2023-07-29T00:06:35;18.30;89.60
48579;DHT22;34357;51.948;6.132;2023-07-29T00:09:02;18.30;89.60
48579;DHT22;34357;51.948;6.132;2023-07-29T00:11:28;18.20;89.70
48579;DHT22;34357;51.948;6.132;2023-07-29T00:13:55;18.20;90.00
48579;DHT22;34357;51.948;6.132;2023-07-29T00:16:20;18.10;90.10
48579;DHT22;34357;51.948;6.132;2023-07-29T00:18:49;18.20;90.10
48579;DHT22;34357;51.948;6.132;2023-07-29T00:21:15;18.10;90.10
48579;DHT22;34357;51.948;6.132;2023-07-29T00:23:40;18.10;90.20
48579;DHT22;34357;51.948;6.132;2023-07-29T00:26:06;18.20;90.10
48579;DHT22;34357;51.948;6.132;2023-07-29T00:28:32;18.00;90.10
48579;DHT22;34357;51.948;6.132;2023-07-29T00:30:58;18.00;90.20
48579;DHT22;34357;51.948;6.132;2023-07-29T00:33:24;18.00;90.20
48579;DHT22;34357;51.948;6.132;2023-07-29T00:35:50;18.00;90.30
48579;DHT22;34357;51.948;6.132;2023-07-29T00:38:16;18.00;90.40
48579;DHT22;34357;51.948;6.132;2023-07-29T00:40:41;18.00;90.50
48579;DHT22;34357;51.948;6.132;2023-07-29T00:43:07;18.10;90.60
48579;DHT22;34357;51.948;6.132;2023-07-29T00:45:35;18.10;90.40
48579;DHT22;34357;51.948;6.132;2023-07-29T00:48:01;18.10;90.50
48579;DHT22;34357;51.948;6.132;2023-07-29T00:50:28;18.00;90.50
48579;DHT22;34357;51.948;6.132;2023-07-29T00:52:56;18.00;90.40
48579;DHT22;34357;51.948;6.132;2023-07-29T00:55:23;17.90;90.40
48579;DHT22;34357;51.948;6.132;2023-07-29T00:57:50;17.90;90.50
48579;DHT22;34357;51.948;6.132;2023-07-29T01:00:17;17.90;90.60
48579;DHT22;34357;51.948;6.132;2023-07-29T01:02:43;17.80;90.70
48579;DHT22;34357;51.948;6.132;2023-07-29T01:05:12;17.80;90.80
48579;DHT22;34357;51.948;6.132;2023-07-29T01:07:59;17.80;90.80
48579;DHT22;34357;51.948;6.132;2023-07-29T01:10:56;17.70;90.80
48579;DHT22;34357;51.948;6.132;2023-07-29T01:14:02;17.70;90.90
48579;DHT22;34357;51.948;6.132;2023-07-29T01:16:53;17.70;91.00
48579;DHT22;34357;51.948;6.132;2023-07-29T01:21:58;17.70;91.10
48579;DHT22;34357;51.948;6.132;2023-07-29T01:24:24;17.70;91.20
48579;DHT22;34357;51.948;6.132;2023-07-29T01:26:50;17.80;91.10
48579;DHT22;34357;51.948;6.132;2023-07-29T01:29:16;17.90;91.10
48579;DHT22;34357;51.948;6.132;2023-07-29T01:31:47;17.80;91.00
48579;DHT22;34357;51.948;6.132;2023-07-29T01:34:26;17.80;91.10
48579;DHT22;34357;51.948;6.132;2023-07-29T01:36:54;17.80;91.10
48579;DHT22;34357;51.948;6.132;2023-07-29T01:39:23;17.70;91.20
48579;DHT22;34357;51.948;6.132;2023-07-29T01:41:52;17.70;91.20
48579;DHT22;34357;51.948;6.132;2023-07-29T01:44:18;17.70;91.30
48579;DHT22;34357;51.948;6.132;2023-07-29T01:46:45;17.70;91.30
48579;DHT22;34357;51.948;6.132;2023-07-29T01:49:11;17.60;91.30
48579;DHT22;34357;51.948;6.132;2023-07-29T01:51:37;17.60;91.30
48579;DHT22;34357;51.948;6.132;2023-07-29T01:54:03;17.60;91.40
48579;DHT22;34357;51.948;6.132;2023-07-29T01:56:29;17.50;91.30
48579;DHT22;34357;51.948;6.132;2023-07-29T01:58:56;17.50;91.40
48579;DHT22;34357;51.948;6.132;2023-07-29T02:01:22;17.50;91.50
48579;DHT22;34357;51.948;6.132;2023-07-29T02:03:48;17.60;91.50
48579;DHT22;34357;51.948;6.132;2023-07-29T02:06:20;17.60;91.50
48579;DHT22;34357;51.948;6.132;2023-07-29T02:08:46;17.60;91.60
48579;DHT22;34357;51.948;6.132;2023-07-29T02:11:12;17.60;91.70
48579;DHT22;34357;51.948;6.132;2023-07-29T02:13:37;17.60;91.60
48579;DHT22;34357;51.948;6.132;2023-07-29T02:16:03;17.70;91.60
48579;DHT22;34357;51.948;6.132;2023-07-29T02:18:29;17.70;91.50
48579;DHT22;34357;51.948;6.132;2023-07-29T02:20:55;17.70;91.60
48579;DHT22;34357;51.948;6.132;2023-07-29T02:23:21;17.70;91.50
48579;DHT22;34357;51.948;6.132;2023-07-29T02:25:46;17.70;91.50
48579;DHT22;34357;51.948;6.132;2023-07-29T02:28:12;17.70;91.60
48579;DHT22;34357;51.948;6.132;2023-07-29T02:30:41;17.70;91.60
48579;DHT22;34357;51.948;6.132;2023-07-29T02:33:07;17.70;91.70
48579;DHT22;34357;51.948;6.132;2023-07-29T02:35:33;17.70;91.70
48579;DHT22;34357;51.948;6.132;2023-07-29T02:37:59;17.70;91.90
48579;DHT22;34357;51.948;6.132;2023-07-29T02:40:25;17.90;91.90
48579;DHT22;34357;51.948;6.132;2023-07-29T02:42:52;17.90;91.70
48579;DHT22;34357;51.948;6.132;2023-07-29T02:45:18;17.90;91.60
48579;DHT22;34357;51.948;6.132;2023-07-29T02:47:44;17.90;91.60
48579;DHT22;34357;51.948;6.132;2023-07-29T02:50:09;17.90;91.70
48579;DHT22;34357;51.948;6.132;2023-07-29T02:52:35;17.90;91.60
48579;DHT22;34357;51.948;6.132;2023-07-29T02:55:01;17.90;91.60
48579;DHT22;34357;51.948;6.132;2023-07-29T02:57:27;17.90;91.70
48579;DHT22;34357;51.948;6.132;2023-07-29T02:59:52;17.90;91.60
48579;DHT22;34357;51.948;6.132;2023-07-29T03:02:18;17.90;91.60
48579;DHT22;34357;51.948;6.132;2023-07-29T03:04:44;17.90;91.60
48579;DHT22;34357;51.948;6.132;2023-07-29T03:07:10;17.80;91.70
48579;DHT22;34357;51.948;6.132;2023-07-29T03:09:36;17.80;91.80
48579;DHT22;34357;51.948;6.132;2023-07-29T03:12:02;17.80;91.80
48579;DHT22;34357;51.948;6.132;2023-07-29T03:14:28;17.80;91.80
48579;DHT22;34357;51.948;6.132;2023-07-29T03:16:53;17.80;91.90
48579;DHT22;34357;51.948;6.132;2023-07-29T03:19:19;17.80;91.90
48579;DHT22;34357;51.948;6.132;2023-07-29T03:21:46;17.90;91.90
48579;DHT22;34357;51.948;6.132;2023-07-29T03:24:11;17.90;91.90
48579;DHT22;34357;51.948;6.132;2023-07-29T03:26:37;17.90;91.90
48579;DHT22;34357;51.948;6.132;2023-07-29T03:29:03;17.90;91.80
48579;DHT22;34357;51.948;6.132;2023-07-29T03:31:29;17.90;91.70
48579;DHT22;34357;51.948;6.132;2023-07-29T03:33:54;18.00;91.60
48579;DHT22;34357;51.948;6.132;2023-07-29T03:36:21;17.90;91.40
48579;DHT22;34357;51.948;6.132;2023-07-29T03:38:47;17.90;91.40
48579;DHT22;34357;51.948;6.132;2023-07-29T03:41:12;17.90;91.30
48579;DHT22;34357;51.948;6.132;2023-07-29T03:43:38;17.90;91.30
48579;DHT22;34357;51.948;6.132;2023-07-29T03:46:04;17.90;91.00
48579;DHT22;34357;51.948;6.132;2023-07-29T03:48:31;18.00;90.80
48579;DHT22;34357;51.948;6.132;2023-07-29T03:50:57;17.90;90.70
48579;DHT22;34357;51.948;6.132;2023-07-29T03:53:22;17.90;90.70
48579;DHT22;34357;51.948;6.132;2023-07-29T03:55:48;17.90;90.50
48579;DHT22;34357;51.948;6.132;2023-07-29T03:58:15;17.90;90.30
48579;DHT22;34357;51.948;6.132;2023-07-29T04:00:41;17.90;90.00
48579;DHT22;34357;51.948;6.132;2023-07-29T04:03:08;17.90;89.90
48579;DHT22;34357;51.948;6.132;2023-07-29T04:05:35;17.90;89.70
48579;DHT22;34357;51.948;6.132;2023-07-29T04:08:00;18.00;89.30
48579;DHT22;34357;51.948;6.132;2023-07-29T04:10:26;17.90;89.10
48579;DHT22;34357;51.948;6.132;2023-07-29T04:12:52;17.90;89.20
48579;DHT22;34357;51.948;6.132;2023-07-29T04:15:18;17.90;89.10
48579;DHT22;34357;51.948;6.132;2023-07-29T04:17:43;17.90;88.80
48579;DHT22;34357;51.948;6.132;2023-07-29T04:20:10;17.80;89.10
48579;DHT22;34357;51.948;6.132;2023-07-29T04:22:36;17.80;89.00
48579;DHT22;34357;51.948;6.132;2023-07-29T04:25:02;17.90;89.00
48579;DHT22;34357;51.948;6.132;2023-07-29T04:27:30;17.80;88.70
48579;DHT22;34357;51.948;6.132;2023-07-29T04:29:55;17.80;88.40
48579;DHT22;34357;51.948;6.132;2023-07-29T04:32:21;17.80;88.10
48579;DHT22;34357;51.948;6.132;2023-07-29T04:34:47;17.70;88.20
48579;DHT22;34357;51.948;6.132;2023-07-29T04:37:12;17.70;88.40
48579;DHT22;34357;51.948;6.132;2023-07-29T04:39:38;17.60;88.40
48579;DHT22;34357;51.948;6.132;2023-07-29T04:42:04;17.70;88.60
48579;DHT22;34357;51.948;6.132;2023-07-29T04:44:30;17.70;88.80
48579;DHT22;34357;51.948;6.132;2023-07-29T04:46:56;17.70;89.00
48579;DHT22;34357;51.948;6.132;2023-07-29T04:49:21;17.60;88.90
48579;DHT22;34357;51.948;6.132;2023-07-29T04:51:47;17.60;88.80
48579;DHT22;34357;51.948;6.132;2023-07-29T04:54:13;17.60;88.60
48579;DHT22;34357;51.948;6.132;2023-07-29T04:56:38;17.70;88.60
48579;DHT22;34357;51.948;6.132;2023-07-29T04:59:04;17.70;88.60
48579;DHT22;34357;51.948;6.132;2023-07-29T05:01:30;17.80;88.60
48579;DHT22;34357;51.948;6.132;2023-07-29T05:03:55;17.70;88.20
48579;DHT22;34357;51.948;6.132;2023-07-29T05:06:21;17.80;88.00
48579;DHT22;34357;51.948;6.132;2023-07-29T05:08:47;17.90;87.90
48579;DHT22;34357;51.948;6.132;2023-07-29T05:11:13;17.90;87.50
48579;DHT22;34357;51.948;6.132;2023-07-29T05:13:39;17.90;86.90
48579;DHT22;34357;51.948;6.132;2023-07-29T05:16:04;17.90;87.10
48579;DHT22;34357;51.948;6.132;2023-07-29T05:18:30;17.70;86.60
48579;DHT22;34357;51.948;6.132;2023-07-29T05:20:56;17.70;86.90
48579;DHT22;34357;51.948;6.132;2023-07-29T05:23:22;17.70;86.50
48579;DHT22;34357;51.948;6.132;2023-07-29T05:25:47;17.70;86.30
48579;DHT22;34357;51.948;6.132;2023-07-29T05:28:13;17.80;85.80
48579;DHT22;34357;51.948;6.132;2023-07-29T05:30:39;17.90;85.60
48579;DHT22;34357;51.948;6.132;2023-07-29T05:33:06;17.90;84.80
48579;DHT22;34357;51.948;6.132;2023-07-29T05:35:34;17.90;84.70
48579;DHT22;34357;51.948;6.132;2023-07-29T05:37:59;17.90;84.90
48579;DHT22;34357;51.948;6.132;2023-07-29T05:40:25;17.90;84.60
48579;DHT22;34357;51.948;6.132;2023-07-29T05:42:51;18.00;84.60
48579;DHT22;34357;51.948;6.132;2023-07-29T05:45:17;18.00;84.40
48579;DHT22;34357;51.948;6.132;2023-07-29T05:47:43;18.00;83.70
48579;DHT22;34357;51.948;6.132;2023-07-29T05:50:09;17.90;83.40
48579;DHT22;34357;51.948;6.132;2023-07-29T05:52:35;17.90;84.30
48579;DHT22;34357;51.948;6.132;2023-07-29T05:55:01;17.90;84.40
48579;DHT22;34357;51.948;6.132;2023-07-29T05:57:27;17.90;84.50
48579;DHT22;34357;51.948;6.132;2023-07-29T05:59:53;17.90;84.20
48579;DHT22;34357;51.948;6.132;2023-07-29T06:02:19;17.90;84.30
48579;DHT22;34357;51.948;6.132;2023-07-29T06:04:45;17.90;83.70
48579;DHT22;34357;51.948;6.132;2023-07-29T06:07:10;17.90;83.90
48579;DHT22;34357;51.948;6.132;2023-07-29T06:09:36;17.90;84.00
48579;DHT22;34357;51.948;6.132;2023-07-29T06:12:02;18.00;84.00
48579;DHT22;34357;51.948;6.132;2023-07-29T06:14:28;18.10;83.70
48579;DHT22;34357;51.948;6.132;2023-07-29T06:16:54;18.00;83.80
48579;DHT22;34357;51.948;6.132;2023-07-29T06:19:20;18.10;83.30
48579;DHT22;34357;51.948;6.132;2023-07-29T06:21:46;18.00;83.10
48579;DHT22;34357;51.948;6.132;2023-07-29T06:24:11;18.00;83.50
48579;DHT22;34357;51.948;6.132;2023-07-29T06:26:37;18.10;83.80
48579;DHT22;34357;51.948;6.132;2023-07-29T06:29:03;18.20;83.90
48579;DHT22;34357;51.948;6.132;2023-07-29T06:31:29;18.30;83.50
48579;DHT22;34357;51.948;6.132;2023-07-29T06:33:55;18.40;82.80
48579;DHT22;34357;51.948;6.132;2023-07-29T06:36:21;18.40;82.60
48579;DHT22;34357;51.948;6.132;2023-07-29T06:38:47;18.30;82.80
48579;DHT22;34357;51.948;6.132;2023-07-29T06:41:12;18.30;83.10
48579;DHT22;34357;51.948;6.132;2023-07-29T06:43:38;18.40;83.70
48579;DHT22;34357;51.948;6.132;2023-07-29T06:46:04;18.60;83.10
48579;DHT22;34357;51.948;6.132;2023-07-29T06:48:29;18.90;82.30
48579;DHT22;34357;51.948;6.132;2023-07-29T06:50:55;19.10;81.10
48579;DHT22;34357;51.948;6.132;2023-07-29T06:53:28;19.30;80.20
48579;DHT22;34357;51.948;6.132;2023-07-29T06:55:54;19.40;78.90
48579;DHT22;34357;51.948;6.132;2023-07-29T06:58:20;19.40;79.40
48579;DHT22;34357;51.948;6.132;2023-07-29T07:00:46;19.40;79.90
48579;DHT22;34357;51.948;6.132;2023-07-29T07:03:11;19.40;80.50
48579;DHT22;34357;51.948;6.132;2023-07-29T07:05:37;19.70;79.50
48579;DHT22;34357;51.948;6.132;2023-07-29T07:08:03;19.80;78.50
48579;DHT22;34357;51.948;6.132;2023-07-29T07:10:29;20.00;78.30
48579;DHT22;34357;51.948;6.132;2023-07-29T07:12:55;20.00;77.70
48579;DHT22;34357;51.948;6.132;2023-07-29T07:15:20;20.20;77.60
48579;DHT22;34357;51.948;6.132;2023-07-29T07:17:46;20.60;76.40
48579;DHT22;34357;51.948;6.132;2023-07-29T07:20:12;20.80;75.80
48579;DHT22;34357;51.948;6.132;2023-07-29T07:22:38;20.90;75.00
48579;DHT22;34357;51.948;6.132;2023-07-29T07:25:05;21.20;75.60
48579;DHT22;34357;51.948;6.132;2023-07-29T07:27:30;20.80;75.60
48579;DHT22;34357;51.948;6.132;2023-07-29T07:29:56;20.90;75.10
48579;DHT22;34357;51.948;6.132;2023-07-29T07:32:22;20.80;74.80
48579;DHT22;34357;51.948;6.132;2023-07-29T07:34:48;21.10;75.20
48579;DHT22;34357;51.948;6.132;2023-07-29T07:37:13;21.60;72.90
48579;DHT22;34357;51.948;6.132;2023-07-29T07:39:39;21.90;72.60
48579;DHT22;34357;51.948;6.132;2023-07-29T07:42:05;22.10;71.60
48579;DHT22;34357;51.948;6.132;2023-07-29T07:44:31;22.40;71.00
48579;DHT22;34357;51.948;6.132;2023-07-29T07:46:57;21.50;72.50
48579;DHT22;34357;51.948;6.132;2023-07-29T07:49:23;21.20;73.00
48579;DHT22;34357;51.948;6.132;2023-07-29T07:51:48;21.40;74.50
48579;DHT22;34357;51.948;6.132;2023-07-29T07:54:14;21.10;73.90
48579;DHT22;34357;51.948;6.132;2023-07-29T07:56:40;20.80;74.40
48579;DHT22;34357;51.948;6.132;2023-07-29T07:59:06;20.40;75.70
48579;DHT22;34357;51.948;6.132;2023-07-29T08:01:35;20.70;77.30
48579;DHT22;34357;51.948;6.132;2023-07-29T08:04:02;20.90;75.80
48579;DHT22;34357;51.948;6.132;2023-07-29T08:06:28;20.90;75.70
48579;DHT22;34357;51.948;6.132;2023-07-29T08:08:54;20.90;75.50
48579;DHT22;34357;51.948;6.132;2023-07-29T08:11:19;20.90;74.70
48579;DHT22;34357;51.948;6.132;2023-07-29T08:13:45;21.20;75.00
48579;DHT22;34357;51.948;6.132;2023-07-29T08:16:12;21.60;75.50
48579;DHT22;34357;51.948;6.132;2023-07-29T08:18:38;21.70;71.80
48579;DHT22;34357;51.948;6.132;2023-07-29T08:21:04;21.40;73.10
48579;DHT22;34357;51.948;6.132;2023-07-29T08:23:31;21.00;74.50
48579;DHT22;34357;51.948;6.132;2023-07-29T08:25:59;20.60;76.50
48579;DHT22;34357;51.948;6.132;2023-07-29T08:28:34;20.60;77.00
48579;DHT22;34357;51.948;6.132;2023-07-29T08:31:00;20.40;77.00
48579;DHT22;34357;51.948;6.132;2023-07-29T08:33:27;20.40;76.90
48579;DHT22;34357;51.948;6.132;2023-07-29T08:35:53;20.50;76.90
48579;DHT22;34357;51.948;6.132;2023-07-29T08:38:19;20.20;77.30
48579;DHT22;34357;51.948;6.132;2023-07-29T08:40:52;20.10;78.20
48579;DHT22;34357;51.948;6.132;2023-07-29T08:43:20;20.00;78.50
48579;DHT22;34357;51.948;6.132;2023-07-29T08:45:49;20.00;78.30
48579;DHT22;34357;51.948;6.132;2023-07-29T08:48:19;20.10;78.90
48579;DHT22;34357;51.948;6.132;2023-07-29T08:50:48;20.30;78.90
48579;DHT22;34357;51.948;6.132;2023-07-29T08:53:14;20.50;78.00
48579;DHT22;34357;51.948;6.132;2023-07-29T08:55:40;20.60;78.00
48579;DHT22;34357;51.948;6.132;2023-07-29T08:58:06;20.70;77.20
48579;DHT22;34357;51.948;6.132;2023-07-29T09:00:32;21.10;77.70
48579;DHT22;34357;51.948;6.132;2023-07-29T09:02:58;21.20;75.70
48579;DHT22;34357;51.948;6.132;2023-07-29T09:05:28;21.00;75.10
48579;DHT22;34357;51.948;6.132;2023-07-29T09:07:55;20.90;76.20
48579;DHT22;34357;51.948;6.132;2023-07-29T09:10:25;20.80;76.70
48579;DHT22;34357;51.948;6.132;2023-07-29T09:12:52;21.00;75.40
48579;DHT22;34357;51.948;6.132;2023-07-29T09:15:31;21.40;75.00
48579;DHT22;34357;51.948;6.132;2023-07-29T09:17:57;21.70;73.40
48579;DHT22;34357;51.948;6.132;2023-07-29T09:20:27;22.00;72.50
48579;DHT22;34357;51.948;6.132;2023-07-29T09:22:58;22.20;72.00
48579;DHT22;34357;51.948;6.132;2023-07-29T09:25:29;22.00;71.60
48579;DHT22;34357;51.948;6.132;2023-07-29T09:27:59;22.20;71.10
48579;DHT22;34357;51.948;6.132;2023-07-29T09:30:28;21.90;70.40
48579;DHT22;34357;51.948;6.132;2023-07-29T09:32:57;21.90;71.80
48579;DHT22;34357;51.948;6.132;2023-07-29T09:35:27;21.80;71.70
48579;DHT22;34357;51.948;6.132;2023-07-29T09:37:53;21.70;71.70
48579;DHT22;34357;51.948;6.132;2023-07-29T09:40:19;21.50;72.90
48579;DHT22;34357;51.948;6.132;2023-07-29T09:42:53;21.40;73.20
48579;DHT22;34357;51.948;6.132;2023-07-29T09:45:23;21.10;73.30
48579;DHT22;34357;51.948;6.132;2023-07-29T09:47:49;20.80;74.10
48579;DHT22;34357;51.948;6.132;2023-07-29T09:50:16;20.90;75.10
48579;DHT22;34357;51.948;6.132;2023-07-29T09:52:42;21.10;75.20
48579;DHT22;34357;51.948;6.132;2023-07-29T09:55:11;21.90;74.10
48579;DHT22;34357;51.948;6.132;2023-07-29T09:57:37;22.60;72.60
48579;DHT22;34357;51.948;6.132;2023-07-29T10:00:05;22.90;68.40
48579;DHT22;34357;51.948;6.132;2023-07-29T10:02:40;23.40;69.30
48579;DHT22;34357;51.948;6.132;2023-07-29T10:05:07;23.40;68.60
48579;DHT22;34357;51.948;6.132;2023-07-29T10:07:37;23.30;68.80
48579;DHT22;34357;51.948;6.132;2023-07-29T10:10:07;23.10;67.80
48579;DHT22;34357;51.948;6.132;2023-07-29T10:12:34;22.60;69.50
48579;DHT22;34357;51.948;6.132;2023-07-29T10:15:05;22.30;70.20
48579;DHT22;34357;51.948;6.132;2023-07-29T10:17:35;22.10;71.70
48579;DHT22;34357;51.948;6.132;2023-07-29T10:20:06;21.90;72.50
48579;DHT22;34357;51.948;6.132;2023-07-29T10:22:40;22.10;72.00
48579;DHT22;34357;51.948;6.132;2023-07-29T10:25:21;22.20;72.00
48579;DHT22;34357;51.948;6.132;2023-07-29T10:30:13;22.30;70.40
48579;DHT22;34357;51.948;6.132;2023-07-29T10:32:42;22.00;70.90
48579;DHT22;34357;51.948;6.132;2023-07-29T10:35:15;22.10;72.80
48579;DHT22;34357;51.948;6.132;2023-07-29T10:37:42;22.60;72.50
48579;DHT22;34357;51.948;6.132;2023-07-29T10:40:11;22.50;70.40
48579;DHT22;34357;51.948;6.132;2023-07-29T10:42:38;22.20;70.10
48579;DHT22;34357;51.948;6.132;2023-07-29T10:45:24;22.20;70.50
48579;DHT22;34357;51.948;6.132;2023-07-29T10:47:50;22.70;70.30
48579;DHT22;34357;51.948;6.132;2023-07-29T10:50:21;22.90;68.40
48579;DHT22;34357;51.948;6.132;2023-07-29T10:52:50;22.90;69.50
48579;DHT22;34357;51.948;6.132;2023-07-29T10:55:32;23.00;68.60
48579;DHT22;34357;51.948;6.132;2023-07-29T10:58:04;23.40;68.40
48579;DHT22;34357;51.948;6.132;2023-07-29T11:00:31;23.20;67.70
48579;DHT22;34357;51.948;6.132;2023-07-29T11:03:06;22.90;69.80
48579;DHT22;34357;51.948;6.132;2023-07-29T11:05:51;22.90;67.40
48579;DHT22;34357;51.948;6.132;2023-07-29T11:08:23;23.00;68.90
48579;DHT22;34357;51.948;6.132;2023-07-29T11:11:07;22.90;68.80
48579;DHT22;34357;51.948;6.132;2023-07-29T11:13:35;22.90;69.50
48579;DHT22;34357;51.948;6.132;2023-07-29T11:16:01;23.00;68.50
48579;DHT22;34357;51.948;6.132;2023-07-29T11:18:30;23.20;68.70
48579;DHT22;34357;51.948;6.132;2023-07-29T11:20:56;23.40;68.60
48579;DHT22;34357;51.948;6.132;2023-07-29T11:23:36;23.50;66.60
48579;DHT22;34357;51.948;6.132;2023-07-29T11:26:04;23.70;68.10
48579;DHT22;34357;51.948;6.132;2023-07-29T11:28:30;23.80;66.60
48579;DHT22;34357;51.948;6.132;2023-07-29T11:30:56;23.80;65.50
48579;DHT22;34357;51.948;6.132;2023-07-29T11:33:25;23.90;63.60
48579;DHT22;34357;51.948;6.132;2023-07-29T11:35:51;23.90;64.50
48579;DHT22;34357;51.948;6.132;2023-07-29T11:38:18;24.10;65.20
48579;DHT22;34357;51.948;6.132;2023-07-29T11:40:54;24.00;63.50
48579;DHT22;34357;51.948;6.132;2023-07-29T11:43:20;24.30;63.60
48579;DHT22;34357;51.948;6.132;2023-07-29T11:45:46;24.60;62.40
48579;DHT22;34357;51.948;6.132;2023-07-29T11:48:12;24.00;63.70
48579;DHT22;34357;51.948;6.132;2023-07-29T11:50:37;23.50;65.50
48579;DHT22;34357;51.948;6.132;2023-07-29T11:53:03;23.30;65.30
48579;DHT22;34357;51.948;6.132;2023-07-29T11:55:29;23.10;63.60
48579;DHT22;34357;51.948;6.132;2023-07-29T11:57:55;23.10;67.20
48579;DHT22;34357;51.948;6.132;2023-07-29T12:00:21;23.20;66.90
48579;DHT22;34357;51.948;6.132;2023-07-29T12:02:48;23.30;66.00
48579;DHT22;34357;51.948;6.132;2023-07-29T12:05:14;23.40;65.20
48579;DHT22;34357;51.948;6.132;2023-07-29T12:07:42;23.00;65.10
48579;DHT22;34357;51.948;6.132;2023-07-29T12:10:10;22.80;66.40
48579;DHT22;34357;51.948;6.132;2023-07-29T12:12:55;22.40;68.50
48579;DHT22;34357;51.948;6.132;2023-07-29T12:15:27;21.90;72.60
48579;DHT22;34357;51.948;6.132;2023-07-29T12:17:58;21.20;78.10
48579;DHT22;34357;51.948;6.132;2023-07-29T12:20:25;20.40;82.00
48579;DHT22;34357;51.948;6.132;2023-07-29T12:22:53;19.90;83.90
48579;DHT22;34357;51.948;6.132;2023-07-29T12:25:19;19.40;86.10
48579;DHT22;34357;51.948;6.132;2023-07-29T12:27:45;19.20;87.50
48579;DHT22;34357;51.948;6.132;2023-07-29T12:30:11;18.90;88.10
48579;DHT22;34357;51.948;6.132;2023-07-29T12:32:46;18.70;88.80
48579;DHT22;34357;51.948;6.132;2023-07-29T12:35:13;18.50;89.10
48579;DHT22;34357;51.948;6.132;2023-07-29T12:37:39;18.40;89.70
48579;DHT22;34357;51.948;6.132;2023-07-29T12:40:25;18.30;89.80
48579;DHT22;34357;51.948;6.132;2023-07-29T12:42:51;18.20;89.70
48579;DHT22;34357;51.948;6.132;2023-07-29T12:45:17;18.40;90.60
48579;DHT22;34357;51.948;6.132;2023-07-29T12:47:43;18.40;90.20
48579;DHT22;34357;51.948;6.132;2023-07-29T12:50:10;18.50;90.40
48579;DHT22;34357;51.948;6.132;2023-07-29T12:52:35;18.50;89.90
48579;DHT22;34357;51.948;6.132;2023-07-29T12:55:01;18.60;90.30
48579;DHT22;34357;51.948;6.132;2023-07-29T12:57:27;18.70;90.20
48579;DHT22;34357;51.948;6.132;2023-07-29T12:59:52;18.90;90.20
48579;DHT22;34357;51.948;6.132;2023-07-29T13:02:18;19.10;89.90
48579;DHT22;34357;51.948;6.132;2023-07-29T13:04:44;19.40;89.50
48579;DHT22;34357;51.948;6.132;2023-07-29T13:07:10;19.50;88.50
48579;DHT22;34357;51.948;6.132;2023-07-29T13:09:35;19.80;88.60
48579;DHT22;34357;51.948;6.132;2023-07-29T13:12:01;19.90;87.70
48579;DHT22;34357;51.948;6.132;2023-07-29T13:14:27;20.00;87.00
48579;DHT22;34357;51.948;6.132;2023-07-29T13:16:53;19.90;87.20
48579;DHT22;34357;51.948;6.132;2023-07-29T13:19:19;19.70;86.60
48579;DHT22;34357;51.948;6.132;2023-07-29T13:21:45;20.00;87.00
48579;DHT22;34357;51.948;6.132;2023-07-29T13:24:11;20.20;87.00
48579;DHT22;34357;51.948;6.132;2023-07-29T13:26:36;20.40;86.90
48579;DHT22;34357;51.948;6.132;2023-07-29T13:29:02;20.90;87.00
48579;DHT22;34357;51.948;6.132;2023-07-29T13:31:30;20.90;85.60
48579;DHT22;34357;51.948;6.132;2023-07-29T13:33:56;20.90;85.00
48579;DHT22;34357;51.948;6.132;2023-07-29T13:36:22;20.90;84.70
48579;DHT22;34357;51.948;6.132;2023-07-29T13:38:48;20.90;84.80
48579;DHT22;34357;51.948;6.132;2023-07-29T13:41:14;20.60;83.80
48579;DHT22;34357;51.948;6.132;2023-07-29T13:43:39;20.90;85.20
48579;DHT22;34357;51.948;6.132;2023-07-29T13:46:05;21.30;84.20
48579;DHT22;34357;51.948;6.132;2023-07-29T13:48:31;21.40;83.60
48579;DHT22;34357;51.948;6.132;2023-07-29T13:50:58;21.50;83.80
48579;DHT22;34357;51.948;6.132;2023-07-29T13:53:24;21.50;81.50
48579;DHT22;34357;51.948;6.132;2023-07-29T13:55:51;21.50;82.70
48579;DHT22;34357;51.948;6.132;2023-07-29T13:58:17;21.10;82.30
48579;DHT22;34357;51.948;6.132;2023-07-29T14:00:42;21.10;82.80
48579;DHT22;34357;51.948;6.132;2023-07-29T14:03:08;21.30;83.10
48579;DHT22;34357;51.948;6.132;2023-07-29T14:05:34;22.00;83.60
48579;DHT22;34357;51.948;6.132;2023-07-29T14:08:00;22.20;81.40
48579;DHT22;34357;51.948;6.132;2023-07-29T14:10:25;22.20;80.60
48579;DHT22;34357;51.948;6.132;2023-07-29T14:12:51;22.30;80.30
48579;DHT22;34357;51.948;6.132;2023-07-29T14:15:17;22.20;78.10
48579;DHT22;34357;51.948;6.132;2023-07-29T14:17:44;22.00;77.30
48579;DHT22;34357;51.948;6.132;2023-07-29T14:20:10;21.90;78.40
48579;DHT22;34357;51.948;6.132;2023-07-29T14:22:36;21.80;78.70
48579;DHT22;34357;51.948;6.132;2023-07-29T14:25:02;21.90;78.20
48579;DHT22;34357;51.948;6.132;2023-07-29T14:27:28;21.60;77.60
48579;DHT22;34357;51.948;6.132;2023-07-29T14:29:53;21.90;79.60
48579;DHT22;34357;51.948;6.132;2023-07-29T14:32:19;21.80;79.40
48579;DHT22;34357;51.948;6.132;2023-07-29T14:34:45;22.00;79.90
48579;DHT22;34357;51.948;6.132;2023-07-29T14:37:11;22.00;79.40
48579;DHT22;34357;51.948;6.132;2023-07-29T14:39:37;22.00;78.60
48579;DHT22;34357;51.948;6.132;2023-07-29T14:42:03;22.00;77.70
48579;DHT22;34357;51.948;6.132;2023-07-29T14:44:28;22.20;77.70
48579;DHT22;34357;51.948;6.132;2023-07-29T14:46:54;22.40;76.90
48579;DHT22;34357;51.948;6.132;2023-07-29T14:49:20;22.50;78.00
48579;DHT22;34357;51.948;6.132;2023-07-29T14:51:46;22.60;77.30
48579;DHT22;34357;51.948;6.132;2023-07-29T14:54:12;22.90;77.90
48579;DHT22;34357;51.948;6.132;2023-07-29T14:56:38;22.90;76.60
48579;DHT22;34357;51.948;6.132;2023-07-29T14:59:03;23.00;75.80
48579;DHT22;34357;51.948;6.132;2023-07-29T15:01:29;23.10;76.30
48579;DHT22;34357;51.948;6.132;2023-07-29T15:03:55;23.30;76.30
48579;DHT22;34357;51.948;6.132;2023-07-29T15:06:21;23.50;74.50
48579;DHT22;34357;51.948;6.132;2023-07-29T15:08:46;23.40;71.40
48579;DHT22;34357;51.948;6.132;2023-07-29T15:11:12;23.10;75.10
48579;DHT22;34357;51.948;6.132;2023-07-29T15:13:38;23.00;73.50
48579;DHT22;34357;51.948;6.132;2023-07-29T15:16:04;22.80;72.80
48579;DHT22;34357;51.948;6.132;2023-07-29T15:18:30;22.90;74.30
48579;DHT22;34357;51.948;6.132;2023-07-29T15:20:57;22.90;74.00
48579;DHT22;34357;51.948;6.132;2023-07-29T15:23:23;22.90;73.70
48579;DHT22;34357;51.948;6.132;2023-07-29T15:25:48;23.00;73.30
48579;DHT22;34357;51.948;6.132;2023-07-29T15:28:14;22.90;71.40
48579;DHT22;34357;51.948;6.132;2023-07-29T15:30:40;22.90;73.70
48579;DHT22;34357;51.948;6.132;2023-07-29T15:33:06;22.90;72.10
48579;DHT22;34357;51.948;6.132;2023-07-29T15:35:37;23.00;72.80